sensor_id;sensor_type;location;lat;lon;timestamp;pressure;altitude;pressure_sealevel;temperature;humidity
15558;BME280;7880;50.110;9.372;2023-01-29T00:04:13;-1.4721624276600778;;;-1.312;100.0
15558;BME280;7880;50.110;9.372;2023-01-29T00:09:18;-1.4973704723117407;;;-1.312;100.0
15558;BME280;7880;50.110;9.372;2023-01-29T00:14:25;-1.6486185874266084;;;-1.5;100.0
15558;BME280;7880;50.110;9.372;2023-01-29T00:19:30;-1.6435769878095017;;;-1.562;100.0
15558;BME280;7880;50.110;9.372;2023-01-29T00:24:44;-1.7494505186507012;;;-1.625;100.0
15558;BME280;7880;50.110;9.372;2023-01-29T00:29:37;-1.7494505186507012;;;-1.625;100.0
15558;BME280;7880;50.110;9.372;2023-01-29T00:34:42;-1.5931609756313265;;;-1.5;100.0
15558;BME280;7880;50.110;9.372;2023-01-29T00:39:45;-1.7696168909256813;;;-1.625;100.0
15558;BME280;7880;50.110;9.372;2023-01-29T00:44:57;-1.6839097765972837;;;-1.625;100.0
15558;BME280;7880;50.110;9.372;2023-01-29T00:50:21;-1.7192009515070823;;;-1.625;100.0
15558;BME280;7880;50.110;9.372;2023-01-29T00:55:09;-1.9662387765711173;;;-1.812;100.0
15558;BME280;7880;50.110;9.372;2023-01-29T01:00:10;-1.6687849829846528;;;-1.625;100.0
15558;BME280;7880;50.110;9.372;2023-01-29T01:05:17;-1.5830777697032317;;;-1.437;100.0
15558;BME280;7880;50.110;9.372;2023-01-29T01:10:22;-1.4973704723117407;;;-1.375;100.0
15558;BME280;7880;50.110;9.372;2023-01-29T01:15:17;-1.5578697497898246;;;-1.375;100.0
15558;BME280;7880;50.110;9.372;2023-01-29T01:20:24;-1.658701785787707;;;-1.562;100.0
15558;BME280;7880;50.110;9.372;2023-01-29T01:25:28;-1.7141593559645116;;;-1.625;100.0
15558;BME280;7880;50.110;9.372;2023-01-29T01:30:33;-1.7091177601309027;;;-1.625;100.0
15558;BME280;7880;50.110;9.372;2023-01-29T01:36:00;-1.6687849829846528;;;-1.562;100.0
15558;BME280;7880;50.110;9.372;2023-01-29T01:40:50;-1.603244180395268;;;-1.5;100.0
15558;BME280;7880;50.110;9.372;2023-01-29T01:45:49;-1.618368985358393;;;-1.5;100.0
15558;BME280;7880;50.110;9.372;2023-01-29T01:51:04;-1.6284521872119513;;;-1.562;100.0
15558;BME280;7880;50.110;9.372;2023-01-29T01:56:05;-1.7595337053702678;;;-1.687;100.0
15558;BME280;7880;50.110;9.372;2023-01-29T02:01:08;-1.8401991572172847;;;-1.812;100.0
15558;BME280;7880;50.110;9.372;2023-01-29T02:13:04;-1.6385353879013564;;;-1.5;100.0
15558;BME280;7880;50.110;9.372;2023-01-29T02:18:12;-1.5881193728127982;;;-1.5;100.0
15558;BME280;7880;50.110;9.372;2023-01-29T02:23:39;-1.6385353879013564;;;-1.562;100.0
15558;BME280;7880;50.110;9.372;2023-01-29T02:28:31;-1.6939929708838464;;;-1.625;100.0
15558;BME280;7880;50.110;9.372;2023-01-29T02:33:16;-1.784741667076014;;;-1.625;100.0
15558;BME280;7880;50.110;9.372;2023-01-29T02:38:17;-2.016654573380947;;;-1.937;100.0
15558;BME280;7880;50.110;9.372;2023-01-29T02:43:21;-2.1578186496160923;;;-2.125;100.0
15558;BME280;7880;50.110;9.372;2023-01-29T02:48:39;-1.8906150267866906;;;-1.875;100.0
15558;BME280;7880;50.110;9.372;2023-01-29T02:53:26;-1.875490268971771;;;-1.812;100.0
15558;BME280;7880;50.110;9.372;2023-01-29T02:58:27;-1.9712803575617728;;;-1.875;100.0
15558;BME280;7880;50.110;9.372;2023-01-29T03:03:33;-2.062028765626019;;;-1.937;100.0
15558;BME280;7880;50.110;9.372;2023-01-29T03:08:44;-2.1931096330226865;;;-2.062;100.0
15558;BME280;7880;50.110;9.372;2023-01-29T03:13:44;-2.102361361164367;;;-2.062;100.0
15558;BME280;7880;50.110;9.372;2023-01-29T03:18:55;-2.183026496361708;;;-2.25;100.0
15558;BME280;7880;50.110;9.372;2023-01-29T03:37:36;-2.177984927594662;;;-2.0;100.0
15558;BME280;7880;50.110;9.372;2023-01-29T03:42:45;-2.0922782140260097;;;-2.0;100.0
15558;BME280;7880;50.110;9.372;2023-01-29T03:47:44;-1.9712803575617728;;;-1.937;100.0
15558;BME280;7880;50.110;9.372;2023-01-29T03:52:50;-2.0216961514612195;;;-1.812;100.0
15558;BME280;7880;50.110;9.372;2023-01-29T03:57:54;-2.031779306748649;;;-1.937;100.0
15558;BME280;7880;50.110;9.372;2023-01-29T04:02:57;-2.0922782140260097;;;-1.937;100.0
15558;BME280;7880;50.110;9.372;2023-01-29T04:08:01;-2.3393149837851523;;;-2.125;100.0
15558;BME280;7880;50.110;9.372;2023-01-29T04:13:17;-2.243525298865279;;;-2.187;100.0
15558;BME280;7880;50.110;9.372;2023-01-29T04:18:18;-2.3947721217700746;;;-2.312;100.0
15558;BME280;7880;50.110;9.372;2023-01-29T04:23:22;-2.3645227781438733;;;-2.312;100.0
15558;BME280;7880;50.110;9.372;2023-01-29T04:28:43;-2.1074029342969878;;;-2.062;100.0
15558;BME280;7880;50.110;9.372;2023-01-29T04:33:36;-2.213275902852183;;;-2.125;100.0
15558;BME280;7880;50.110;9.372;2023-01-29T04:38:46;-2.374605893850094;;;-2.312;100.0
15558;BME280;7880;50.110;9.372;2023-01-29T04:43:44;-2.3594812198542057;;;-2.375;100.0
15558;BME280;7880;50.110;9.372;2023-01-29T04:48:54;-2.3544396612735;;;-2.312;100.0
15558;BME280;7880;50.110;9.372;2023-01-29T04:53:50;-2.5964341448561754;;;-2.562;100.0
15558;BME280;7880;50.110;9.372;2023-01-29T04:58:57;-2.611558777815662;;;-2.625;100.0
15558;BME280;7880;50.110;9.372;2023-01-29T05:04:04;-2.5208109407685697;;;-2.5;100.0
15558;BME280;7880;50.110;9.372;2023-01-29T05:09:00;-2.6468495778681245;;;-2.625;100.0
15558;BME280;7880;50.110;9.372;2023-01-29T05:14:06;-2.858594078704482;;;-2.812;100.0
15558;BME280;7880;50.110;9.372;2023-01-29T05:19:14;-2.7426388204097747;;;-2.75;100.0
15558;BME280;7880;50.110;9.372;2023-01-29T05:24:15;-2.798095702280989;;;-2.812;100.0
15558;BME280;7880;50.110;9.372;2023-01-29T05:29:17;-3.0249643977731466;;;-3.062;100.0
15558;BME280;7880;50.110;9.372;2023-01-29T05:34:19;-2.9291754648962525;;;-2.937;100.0
15558;BME280;7880;50.110;9.372;2023-01-29T05:39:25;-2.944300040230155;;;-2.937;100.0
15558;BME280;7880;50.110;9.372;2023-01-29T05:44:26;-3.483741514378926;;;-3.437;100.0
15558;BME280;7880;50.110;9.372;2023-01-29T05:49:29;-3.6803595408564433;;;-3.687;100.0
15558;BME280;7880;50.110;9.372;2023-01-29T05:54:32;-3.312330566014862;;;-3.375;100.0
15558;BME280;7880;50.110;9.372;2023-01-29T05:59:36;-3.675318058527773;;;-3.75;100.0
15558;BME280;7880;50.110;9.372;2023-01-29T06:04:39;-3.6652350929973183;;;-3.687;100.0
15558;BME280;7880;50.110;9.372;2023-01-29T06:09:43;-3.458534043072723;;;-3.562;100.0
15558;BME280;7880;50.110;9.372;2023-01-29T06:14:46;-3.4131605763861446;;;-3.5;100.0
15558;BME280;7880;50.110;9.372;2023-01-29T06:19:48;-3.4736585267295594;;;-3.562;100.0
15558;BME280;7880;50.110;9.372;2023-01-29T06:24:53;-3.508948978409171;;;-3.5;100.0
15558;BME280;7880;50.110;9.372;2023-01-29T06:29:58;-3.3980360822519287;;;-3.437;100.0
15558;BME280;7880;50.110;9.372;2023-01-29T06:35:01;-3.478700020699762;;;-3.5;100.0
15558;BME280;7880;50.110;9.372;2023-01-29T06:40:04;-3.5492809057235717;;;-3.5;100.0
15558;BME280;7880;50.110;9.372;2023-01-29T06:45:09;-3.458534043072723;;;-3.5;100.0
15558;BME280;7880;50.110;9.372;2023-01-29T06:50:12;-3.690442504640669;;;-3.625;100.0
15558;BME280;7880;50.110;9.372;2023-01-29T06:55:29;-3.5391979256412016;;;-3.625;100.0
15558;BME280;7880;50.110;9.372;2023-01-29T07:00:21;-3.5845713268441615;;;-3.562;100.0
15558;BME280;7880;50.110;9.372;2023-01-29T07:05:24;-3.7106084287166596;;;-3.687;100.0
15558;BME280;7880;50.110;9.372;2023-01-29T07:10:27;-3.498865993670188;;;-3.562;100.0
15558;BME280;7880;50.110;9.372;2023-01-29T07:15:46;-3.7055669481342193;;;-3.687;100.0
15558;BME280;7880;50.110;9.372;2023-01-29T07:20:44;-3.478700020699762;;;-3.562;100.0
15558;BME280;7880;50.110;9.372;2023-01-29T07:25:40;-3.5845713268441615;;;-3.5;100.0
15558;BME280;7880;50.110;9.372;2023-01-29T07:30:43;-3.5845713268441615;;;-3.562;100.0
15558;BME280;7880;50.110;9.372;2023-01-29T07:35:50;-3.4635755379160402;;;-3.437;100.0
15558;BME280;7880;50.110;9.372;2023-01-29T07:39:24;-3.312330566014862;;;-3.312;100.0
15558;BME280;7880;50.110;9.372;2023-01-29T07:44:34;-3.5139904703421054;;;-3.375;100.0
15558;BME280;7880;50.110;9.372;2023-01-29T07:49:42;-3.4282850679010153;;;-3.25;100.0
15558;BME280;7880;50.110;9.372;2023-01-29T07:54:35;-3.115711710951291;;;-3.125;100.0
15558;BME280;7880;50.110;9.372;2023-01-29T07:59:39;-3.115711710951291;;;-3.062;100.0
15558;BME280;7880;50.110;9.372;2023-01-29T08:04:44;-3.0854626170359554;;;-3.0;100.0
15558;BME280;7880;50.110;9.372;2023-01-29T08:09:48;-3.0854626170359554;;;-3.0;100.0
15558;BME280;7880;50.110;9.372;2023-01-29T08:14:57;-2.8686771373671944;;;-2.812;100.0
15558;BME280;7880;50.110;9.372;2023-01-29T08:19:55;-2.8434694885276257;;;-2.687;100.0
15558;BME280;7880;50.110;9.372;2023-01-29T08:24:57;-2.5964341448561754;;;-2.5;100.0
15558;BME280;7880;50.110;9.372;2023-01-29T08:30:00;-2.656932660978055;;;-2.5;100.0
15558;BME280;7880;50.110;9.372;2023-01-29T08:35:13;-2.540977134928107;;;-2.312;100.0
15558;BME280;7880;50.110;9.372;2023-01-29T08:40:09;-2.3645227781438733;;;-2.187;100.0
15558;BME280;7880;50.110;9.372;2023-01-29T08:45:18;-2.399813678022474;;;-2.187;100.0
15558;BME280;7880;50.110;9.372;2023-01-29T08:50:17;-2.233442168025067;;;-2.0;100.0
15558;BME280;7880;50.110;9.372;2023-01-29T08:55:20;-2.5208109407685697;;;-2.312;100.0
15558;BME280;7880;50.110;9.372;2023-01-29T09:00:26;-2.3645227781438733;;;-2.187;100.0
15558;BME280;7880;50.110;9.372;2023-01-29T09:05:28;-2.450229224539362;;;-2.25;100.0
15558;BME280;7880;50.110;9.372;2023-01-29T09:10:32;-2.349398102401756;;;-2.187;100.0
15558;BME280;7880;50.110;9.372;2023-01-29T09:15:36;-2.2031927685195116;;;-2.0;100.0
15558;BME280;7880;50.110;9.372;2023-01-29T09:20:49;-2.495603191520786;;;-2.312;100.0
15558;BME280;7880;50.110;9.372;2023-01-29T09:25:44;-2.6670157429238315;;;-2.437;100.0
15558;BME280;7880;50.110;9.372;2023-01-29T09:30:50;-2.611558777815662;;;-2.5;100.0
15558;BME280;7880;50.110;9.372;2023-01-29T09:35:53;-2.5561017774918584;;;-2.375;100.0
15558;BME280;7880;50.110;9.372;2023-01-29T09:41:04;-2.53593558682478;;;-2.375;100.0
15558;BME280;7880;50.110;9.372;2023-01-29T09:46:14;-2.2888993732398375;;;-2.187;100.0
15558;BME280;7880;50.110;9.372;2023-01-29T09:51:20;-2.5056862920930145;;;-2.312;100.0
15558;BME280;7880;50.110;9.372;2023-01-29T09:56:23;-2.278816247638315;;;-2.125;100.0
15558;BME280;7880;50.110;9.372;2023-01-29T10:01:39;-2.3594812198542057;;;-2.187;100.0
15558;BME280;7880;50.110;9.372;2023-01-29T10:06:29;-2.1527770793938545;;;-2.0;100.0
15558;BME280;7880;50.110;9.372;2023-01-29T10:11:34;-2.268733120872639;;;-2.125;100.0
15558;BME280;7880;50.110;9.372;2023-01-29T10:16:38;-1.9057397819822655;;;-1.812;100.0
15558;BME280;7880;50.110;9.372;2023-01-29T10:21:55;-1.9158229506574571;;;-1.75;100.0
15558;BME280;7880;50.110;9.372;2023-01-29T10:26:56;-1.7696168909256813;;;-1.562;100.0
15558;BME280;7880;50.110;9.372;2023-01-29T10:31:54;-1.8099496215058024;;;-1.625;100.0
15558;BME280;7880;50.110;9.372;2023-01-29T10:36:55;-1.4167047038150486;;;-1.312;100.0
15558;BME280;7880;50.110;9.372;2023-01-29T10:42:11;-1.2805810505291446;;;-1.062;100.0
15558;BME280;7880;50.110;9.372;2023-01-29T10:47:16;-1.5931609756313265;;;-1.375;100.0
15558;BME280;7880;50.110;9.372;2023-01-29T10:52:16;-1.578036166302627;;;-1.437;100.0
15558;BME280;7880;50.110;9.372;2023-01-29T10:57:15;-1.3662885606696364;;;-1.25;100.0
15558;BME280;7880;50.110;9.372;2023-01-29T11:02:19;-1.4267879289516714;;;-1.25;100.0
15558;BME280;7880;50.110;9.372;2023-01-29T11:07:21;-1.522578509687446;;;-1.312;100.0
15558;BME280;7880;50.110;9.372;2023-01-29T11:13:13;-1.5175369027943817;;;-1.375;100.0
15558;BME280;7880;50.110;9.372;2023-01-29T11:18:13;-1.436871152924141;;;-1.312;100.0
15558;BME280;7880;50.110;9.372;2023-01-29T11:23:24;-1.451995986700058;;;-1.312;100.0
15558;BME280;7880;50.110;9.372;2023-01-29T11:28:35;-1.4469543757324572;;;-1.25;100.0
15558;BME280;7880;50.110;9.372;2023-01-29T11:33:22;-1.386455021420261;;;-1.25;100.0
15558;BME280;7880;50.110;9.372;2023-01-29T11:38:30;-1.2856226711010095;;;-1.125;100.0
15558;BME280;7880;50.110;9.372;2023-01-29T11:43:32;-1.3209140069549903;;;-1.125;100.0
15558;BME280;7880;50.110;9.372;2023-01-29T11:48:42;-1.4469543757324572;;;-1.25;100.0
15558;BME280;7880;50.110;9.372;2023-01-29T11:53:40;-1.4419127644738183;;;-1.25;100.0
15558;BME280;7880;50.110;9.372;2023-01-29T11:58:48;-1.295705911371624;;;-1.187;100.0
15558;BME280;7880;50.110;9.372;2023-01-29T12:03:52;-1.37133017629385;;;-1.187;100.0
15558;BME280;7880;50.110;9.372;2023-01-29T12:08:59;-1.346122095262399;;;-1.187;100.0
15558;BME280;7880;50.110;9.372;2023-01-29T12:14:01;-1.4267879289516714;;;-1.25;100.0
15558;BME280;7880;50.110;9.372;2023-01-29T12:19:09;-1.346122095262399;;;-1.187;100.0
15558;BME280;7880;50.110;9.372;2023-01-29T12:24:22;-1.295705911371624;;;-1.187;100.0
15558;BME280;7880;50.110;9.372;2023-01-29T12:29:22;-1.3965382500493433;;;-1.187;100.0
15558;BME280;7880;50.110;9.372;2023-01-29T12:34:21;-1.4015798639273271;;;-1.25;100.0
15558;BME280;7880;50.110;9.372;2023-01-29T12:39:20;-1.2553729433042462;;;-1.062;100.0
15558;BME280;7880;50.110;9.372;2023-01-29T12:43:44;-1.2755394296662417;;;-1.125;100.0
15558;BME280;7880;50.110;9.372;2023-01-29T12:48:47;-1.235206452285638;;;-1.062;100.0
15558;BME280;7880;50.110;9.372;2023-01-29T12:53:55;-1.2503313209861517;;;-1.062;100.0
15558;BME280;7880;50.110;9.372;2023-01-29T12:59:04;-1.2755394296662417;;;-1.062;100.0
15558;BME280;7880;50.110;9.372;2023-01-29T13:04:01;-1.1545404416450764;;;-1.0;100.0
15558;BME280;7880;50.110;9.372;2023-01-29T13:09:02;-1.008333107456565;;;-0.812;100.0
15558;BME280;7880;50.110;9.372;2023-01-29T13:14:11;-1.0537078235705848;;;-0.812;100.0
15558;BME280;7880;50.110;9.372;2023-01-29T13:19:20;-1.0234580154472497;;;-0.812;100.0
15558;BME280;7880;50.110;9.372;2023-01-29T13:24:17;-0.7663342233747243;;;-0.687;100.0
15558;BME280;7880;50.110;9.372;2023-01-29T13:29:22;-0.7965841205557809;;;-0.562;100.0
15558;BME280;7880;50.110;9.372;2023-01-29T13:34:29;-0.8671671732328832;;;-0.625;100.0
15558;BME280;7880;50.110;9.372;2023-01-29T13:39:28;-0.7411259677202906;;;-0.562;100.0
15558;BME280;7880;50.110;9.372;2023-01-29T13:44:33;-0.6705428131797817;;;-0.562;100.0
15558;BME280;7880;50.110;9.372;2023-01-29T13:49:38;-0.8470005925744772;;;-0.625;100.0
15558;BME280;7880;50.110;9.372;2023-01-29T13:54:49;-0.7865008226595819;;;-0.625;100.0
15558;BME280;7880;50.110;9.372;2023-01-29T13:59:52;-1.0990825161105022;;;-0.812;100.0
15558;BME280;7880;50.110;9.372;2023-01-29T14:04:49;-0.8621255285048391;;;-0.687;100.0
15558;BME280;7880;50.110;9.372;2023-01-29T14:15:26;-0.731042663421249;;;-0.5;100.0
15558;BME280;7880;50.110;9.372;2023-01-29T14:20:17;-0.8822921056707855;;;-0.625;100.0
15558;BME280;7880;50.110;9.372;2023-01-29T14:25:17;-0.8974170354893432;;;-0.75;100.0
15558;BME280;7880;50.110;9.372;2023-01-29T14:30:17;-0.8369173004990443;;;-0.625;100.0
15558;BME280;7880;50.110;9.372;2023-01-29T14:35:22;-0.7411259677202906;;;-0.562;100.0
15558;BME280;7880;50.110;9.372;2023-01-29T14:40:29;-0.872208817669889;;;-0.75;100.0
15558;BME280;7880;50.110;9.372;2023-01-29T14:45:31;-0.7915424717532005;;;-0.625;100.0
15558;BME280;7880;50.110;9.372;2023-01-29T14:50:45;-0.9075003205798566;;;-0.75;100.0
15558;BME280;7880;50.110;9.372;2023-01-29T14:55:51;-0.781459173274925;;;-0.687;100.0
15558;BME280;7880;50.110;9.372;2023-01-29T15:00:45;-0.7865008226595819;;;-0.625;100.0
15558;BME280;7880;50.110;9.372;2023-01-29T15:05:47;-0.7612925728259142;;;-0.562;100.0
15558;BME280;7880;50.110;9.372;2023-01-29T15:11:48;-1.0284996508620678;;;-0.812;100.0
15558;BME280;7880;50.110;9.372;2023-01-29T15:16:34;-0.9982498340075836;;;-0.875;100.0
15558;BME280;7880;50.110;9.372;2023-01-29T15:21:37;-1.043624555360293;;;-0.875;100.0
15558;BME280;7880;50.110;9.372;2023-01-29T15:26:42;-1.12933229804039;;;-0.937;100.0
15558;BME280;7880;50.110;9.372;2023-01-29T15:31:47;-0.9780832836171612;;;-0.875;100.0
15558;BME280;7880;50.110;9.372;2023-01-29T15:36:52;-1.0839576212165412;;;-0.937;100.0
15558;BME280;7880;50.110;9.372;2023-01-29T15:42:13;-1.12933229804039;;;-1.0;100.0
15558;BME280;7880;50.110;9.372;2023-01-29T15:47:01;-0.9730416452919599;;;-0.812;100.0
15558;BME280;7880;50.110;9.372;2023-01-29T15:52:25;-1.1041241471597458;;;-1.0;100.0
15558;BME280;7880;50.110;9.372;2023-01-29T15:57:22;-1.1242906684463378;;;-1.0;100.0
15558;BME280;7880;50.110;9.372;2023-01-29T16:02:31;-1.1494988135062159;;;-1.062;100.0
15558;BME280;7880;50.110;9.372;2023-01-29T16:07:22;-1.164623697049683;;;-1.0;100.0
15558;BME280;7880;50.110;9.372;2023-01-29T16:12:26;-1.1142074083851186;;;-0.937;100.0
15558;BME280;7880;50.110;9.372;2023-01-29T16:17:30;-1.235206452285638;;;-1.062;100.0
15558;BME280;7880;50.110;9.372;2023-01-29T16:22:33;-1.346122095262399;;;-1.187;100.0
15558;BME280;7880;50.110;9.372;2023-01-29T16:27:37;-1.4822456463938578;;;-1.375;100.0
15558;BME280;7880;50.110;9.372;2023-01-29T16:32:39;-1.3309972431510686;;;-1.25;100.0
15558;BME280;7880;50.110;9.372;2023-01-29T16:37:51;-1.421746316528879;;;-1.25;100.0
15558;BME280;7880;50.110;9.372;2023-01-29T16:42:48;-1.4923288639634849;;;-1.375;100.0
15558;BME280;7880;50.110;9.372;2023-01-29T16:47:59;-1.5377033286204096;;;-1.437;100.0
15558;BME280;7880;50.110;9.372;2023-01-29T16:53:11;-1.618368985358393;;;-1.437;100.0
15558;BME280;7880;50.110;9.372;2023-01-29T16:58:11;-1.7544921121560038;;;-1.687;100.0
15558;BME280;7880;50.110;9.372;2023-01-29T17:03:17;-1.8099496215058024;;;-1.687;100.0
15558;BME280;7880;50.110;9.372;2023-01-29T17:08:18;-1.870448682451388;;;-1.812;100.0
15558;BME280;7880;50.110;9.372;2023-01-29T17:13:20;-1.8301159798109439;;;-1.75;100.0
15558;BME280;7880;50.110;9.372;2023-01-29T17:18:21;-1.9107813664653803;;;-1.875;100.0
15558;BME280;7880;50.110;9.372;2023-01-29T17:23:23;-2.0267377292504536;;;-1.937;100.0
15558;BME280;7880;50.110;9.372;2023-01-29T17:28:32;-2.0267377292504536;;;-1.937;100.0
15558;BME280;7880;50.110;9.372;2023-01-29T17:33:32;-1.9611971952894236;;;-1.875;100.0
15558;BME280;7880;50.110;9.372;2023-01-29T17:38:40;-2.0116129950096364;;;-1.937;100.0
15558;BME280;7880;50.110;9.372;2023-01-29T17:43:51;-2.243525298865279;;;-2.062;100.0
15558;BME280;7880;50.110;9.372;2023-01-29T17:47:55;-2.2838578105845952;;;-2.125;100.0
15558;BME280;7880;50.110;9.372;2023-01-29T17:52:59;-2.2939409356040414;;;-2.187;100.0
15558;BME280;7880;50.110;9.372;2023-01-29T17:58:04;-2.0368208839558064;;;-2.0;100.0
15558;BME280;7880;50.110;9.372;2023-01-29T18:03:12;-2.102361361164367;;;-1.937;100.0
15558;BME280;7880;50.110;9.372;2023-01-29T18:08:16;-1.941030867252266;;;-1.875;100.0
15558;BME280;7880;50.110;9.372;2023-01-29T18:13:16;-1.870448682451388;;;-1.812;100.0
15558;BME280;7880;50.110;9.372;2023-01-29T18:18:22;-1.8654070956399664;;;-1.75;100.0
15558;BME280;7880;50.110;9.372;2023-01-29T18:23:25;-1.8502823334594722;;;-1.75;100.0
15558;BME280;7880;50.110;9.372;2023-01-29T18:28:29;-1.9259061181684956;;;-1.75;100.0
15558;BME280;7880;50.110;9.372;2023-01-29T18:33:36;-1.870448682451388;;;-1.687;100.0
15558;BME280;7880;50.110;9.372;2023-01-29T18:38:39;-1.946072449698113;;;-1.812;100.0
15558;BME280;7880;50.110;9.372;2023-01-29T18:43:54;-2.0116129950096364;;;-1.937;100.0
15558;BME280;7880;50.110;9.372;2023-01-29T18:48:50;-2.056987189874053;;;-1.937;100.0
15558;BME280;7880;50.110;9.372;2023-01-29T18:53:53;-2.082195065723499;;;-2.0;100.0
15558;BME280;7880;50.110;9.372;2023-01-29T18:58:56;-2.1426939380762633;;;-2.062;100.0
15558;BME280;7880;50.110;9.372;2023-01-29T19:04:03;-2.2939409356040414;;;-2.187;100.0
15558;BME280;7880;50.110;9.372;2023-01-29T19:09:08;-2.1880680648377164;;;-2.125;100.0
15558;BME280;7880;50.110;9.372;2023-01-29T19:14:10;-2.233442168025067;;;-2.125;100.0
15558;BME280;7880;50.110;9.372;2023-01-29T19:19:14;-2.450229224539362;;;-2.375;100.0
15558;BME280;7880;50.110;9.372;2023-01-29T19:24:18;-2.4754369868838695;;;-2.375;100.0
15558;BME280;7880;50.110;9.372;2023-01-29T19:29:22;-2.5157693915010895;;;-2.437;100.0
15558;BME280;7880;50.110;9.372;2023-01-29T19:34:28;-2.5157693915010895;;;-2.437;100.0
15558;BME280;7880;50.110;9.372;2023-01-29T19:39:33;-2.636766493594041;;;-2.562;100.0
15558;BME280;7880;50.110;9.372;2023-01-29T19:44:34;-2.606517233786872;;;-2.5;100.0
15558;BME280;7880;50.110;9.372;2023-01-29T19:49:39;-2.606517233786872;;;-2.625;100.0
15558;BME280;7880;50.110;9.372;2023-01-29T19:54:47;-2.4149383450334425;;;-2.375;100.0
15558;BME280;7880;50.110;9.372;2023-01-29T19:59:51;-2.4048552339838354;;;-2.375;100.0
15558;BME280;7880;50.110;9.372;2023-01-29T20:04:54;-2.3241903036774603;;;-2.187;100.0
15558;BME280;7880;50.110;9.372;2023-01-29T20:10:05;-2.3544396612735;;;-2.125;100.0
15558;BME280;7880;50.110;9.372;2023-01-29T20:15:26;-2.2536084285413382;;;-2.062;100.0
15558;BME280;7880;50.110;9.372;2023-01-29T20:20:09;-2.1931096330226865;;;-2.0;100.0
15558;BME280;7880;50.110;9.372;2023-01-29T20:25:13;-2.198151200916618;;;-2.0;100.0
15558;BME280;7880;50.110;9.372;2023-01-29T20:30:16;-2.077153491135687;;;-1.937;100.0
15558;BME280;7880;50.110;9.372;2023-01-29T20:35:21;-2.1275692239170896;;;-1.875;100.0
15558;BME280;7880;50.110;9.372;2023-01-29T20:40:24;-2.162860219547292;;;-1.937;100.0
15558;BME280;7880;50.110;9.372;2023-01-29T20:45:32;-2.102361361164367;;;-1.875;100.0
15558;BME280;7880;50.110;9.372;2023-01-29T20:50:33;-2.177984927594662;;;-1.937;100.0
15558;BME280;7880;50.110;9.372;2023-01-29T20:55:38;-2.172943358536577;;;-1.937;100.0
15558;BME280;7880;50.110;9.372;2023-01-29T21:00:48;-2.13765236698091;;;-1.937;100.0
15558;BME280;7880;50.110;9.372;2023-01-29T21:05:51;-2.223359036020702;;;-2.0;100.0
15558;BME280;7880;50.110;9.372;2023-01-29T21:11:01;-2.2183174695819616;;;-2.0;100.0
15558;BME280;7880;50.110;9.372;2023-01-29T21:16:01;-2.3594812198542057;;;-2.125;100.0
15558;BME280;7880;50.110;9.372;2023-01-29T21:21:14;-2.4401461175642907;;;-2.187;100.0
15558;BME280;7880;50.110;9.372;2023-01-29T21:26:19;-2.4401461175642907;;;-2.25;100.0
15558;BME280;7880;50.110;9.372;2023-01-29T21:31:17;-2.419979900121689;;;-2.25;100.0
15558;BME280;7880;50.110;9.372;2023-01-29T21:36:19;-2.450229224539362;;;-2.25;100.0
15558;BME280;7880;50.110;9.372;2023-01-29T21:43:10;-2.5006447419524194;;;-2.312;100.0
15558;BME280;7880;50.110;9.372;2023-01-29T21:47:50;-2.495603191520786;;;-2.312;100.0
15558;BME280;7880;50.110;9.372;2023-01-29T21:53:19;-2.465353882819181;;;-2.312;100.0
15558;BME280;7880;50.110;9.372;2023-01-29T21:58:45;-2.450229224539362;;;-2.312;100.0
15558;BME280;7880;50.110;9.372;2023-01-29T22:03:33;-2.4451876711973455;;;-2.25;100.0
15558;BME280;7880;50.110;9.372;2023-01-29T22:08:36;-2.2536084285413382;;;-2.125;100.0
15558;BME280;7880;50.110;9.372;2023-01-29T22:13:37;-2.329231864004396;;;-2.125;100.0
15558;BME280;7880;50.110;9.372;2023-01-29T22:18:41;-2.465353882819181;;;-2.187;100.0
15558;BME280;7880;50.110;9.372;2023-01-29T22:23:52;-2.3544396612735;;;-2.187;100.0
15558;BME280;7880;50.110;9.372;2023-01-29T22:28:53;-2.4149383450334425;;;-2.187;100.0
15558;BME280;7880;50.110;9.372;2023-01-29T22:33:56;-2.25864999294281;;;-2.062;100.0
15558;BME280;7880;50.110;9.372;2023-01-29T22:38:59;-2.2737746844009963;;;-2.062;100.0
15558;BME280;7880;50.110;9.372;2023-01-29T22:44:03;-2.2031927685195116;;;-2.0;100.0
15558;BME280;7880;50.110;9.372;2023-01-29T22:49:07;-2.2082343358313663;;;-2.0;100.0
15558;BME280;7880;50.110;9.372;2023-01-29T22:54:14;-2.1931096330226865;;;-2.0;100.0
15558;BME280;7880;50.110;9.372;2023-01-29T22:59:11;-2.082195065723499;;;-1.875;100.0
15558;BME280;7880;50.110;9.372;2023-01-29T23:04:19;-2.0721119162568358;;;-1.812;100.0
15558;BME280;7880;50.110;9.372;2023-01-29T23:09:17;-2.031779306748649;;;-1.812;100.0
15558;BME280;7880;50.110;9.372;2023-01-29T23:14:24;-1.9662387765711173;;;-1.75;100.0
15558;BME280;7880;50.110;9.372;2023-01-29T23:19:26;-2.0015298373939006;;;-1.75;100.0
15558;BME280;7880;50.110;9.372;2023-01-29T23:24:31;-1.9561556137166918;;;-1.75;100.0
15558;BME280;7880;50.110;9.372;2023-01-29T23:29:32;-1.9561556137166918;;;-1.75;100.0
15558;BME280;7880;50.110;9.372;2023-01-29T23:34:36;-1.9662387765711173;;;-1.75;100.0
15558;BME280;7880;50.110;9.372;2023-01-29T23:39:41;-2.0065714163472874;;;-1.75;100.0
15558;BME280;7880;50.110;9.372;2023-01-29T23:44:45;-2.0418624608719256;;;-1.812;100.0
15558;BME280;7880;50.110;9.372;2023-01-29T23:49:52;-2.0721119162568358;;;-1.875;100.0
15558;BME280;7880;50.110;9.372;2023-01-29T23:54:59;-2.0973197877407075;;;-1.875;100.0
